createdAt,value
2022-12-19T00:03:46.635Z,99948.66
2022-12-19T00:08:05.229Z,99951.69
2022-12-19T00:12:34.114Z,99933.59
2022-12-19T00:16:51.175Z,99921.25
2022-12-19T00:21:12.172Z,99921.09
2022-12-19T00:25:28.953Z,99917.06
2022-12-19T00:29:46.521Z,99916.22
2022-12-19T00:34:04.282Z,99895.63
2022-12-19T00:38:21.335Z,99888.81
2022-12-19T00:42:38.199Z,99898.84
2022-12-19T00:46:55.565Z,99891.56
2022-12-19T00:51:23.265Z,99888.69
2022-12-19T00:55:41.592Z,99875.22
2022-12-19T00:59:58.667Z,99871.50
2022-12-19T01:04:34.491Z,99869.69
2022-12-19T01:08:53.172Z,99874.34
2022-12-19T01:13:10.001Z,99860.59
2022-12-19T01:17:27.051Z,99860.19
2022-12-19T01:21:43.963Z,99861.16
2022-12-19T01:26:01.946Z,99848.50
2022-12-19T01:30:19.048Z,99834.06
2022-12-19T01:34:36.736Z,99830.78
2022-12-19T01:38:57.099Z,99834.66
2022-12-19T01:43:15.393Z,99829.94
2022-12-19T01:47:35.974Z,99828.16
2022-12-19T01:51:56.565Z,99837.88
2022-12-19T01:56:13.750Z,99830.47
2022-12-19T02:00:33.120Z,99812.03
2022-12-19T02:04:50.239Z,99793.84
2022-12-19T02:09:07.100Z,99778.44
2022-12-19T02:13:24.690Z,99766.94
2022-12-19T02:18:37.430Z,99776.97
2022-12-19T02:23:47.338Z,99763.97
2022-12-19T02:28:33.317Z,99785.13
2022-12-19T02:33:03.723Z,99770.66
2022-12-19T02:37:29.154Z,99761.81
2022-12-19T02:41:59.242Z,99744.13
2022-12-19T02:46:16.657Z,99736.13
2022-12-19T02:50:47.919Z,99735.13
2022-12-19T02:55:13.728Z,99742.53
2022-12-19T03:00:00.196Z,99747.88
2022-12-19T03:04:35.093Z,99752.91
2022-12-19T03:09:16.629Z,99754.63
2022-12-19T03:14:01.985Z,99742.22
2022-12-19T03:18:20.325Z,99746.84
2022-12-19T03:22:37.402Z,99766.56
2022-12-19T03:27:09.967Z,99763.63
2022-12-19T03:31:29.801Z,99764.59
2022-12-19T03:35:49.228Z,99764.91
2022-12-19T03:40:18.001Z,99785.38
2022-12-19T03:44:39.468Z,99789.91
2022-12-19T03:48:56.613Z,99765.38
2022-12-19T03:53:48.975Z,99751.56
2022-12-19T03:58:20.903Z,99737.59
2022-12-19T04:02:41.456Z,99742.94
2022-12-19T04:06:59.686Z,99746.97
2022-12-19T04:11:20.357Z,99741.59
2022-12-19T04:15:46.217Z,99748.50
2022-12-19T04:20:21.046Z,99745.78
2022-12-19T04:24:43.755Z,99730.75
2022-12-19T04:29:05.999Z,99705.06
2022-12-19T04:33:23.301Z,99719.72
2022-12-19T04:37:40.698Z,99712.13
2022-12-19T04:41:57.790Z,99709.97
2022-12-19T04:46:14.751Z,99712.13
2022-12-19T04:50:34.048Z,99733.13
2022-12-19T04:54:50.883Z,99727.97
2022-12-19T04:59:07.950Z,99717.78
2022-12-19T05:03:26.303Z,99703.97
2022-12-19T05:07:43.241Z,99705.38
2022-12-19T05:12:00.374Z,99707.84
2022-12-19T05:16:17.893Z,99707.84
2022-12-19T05:20:37.417Z,99696.28
2022-12-19T05:24:54.306Z,99681.41
2022-12-19T05:29:11.365Z,99698.94
2022-12-19T05:33:28.236Z,99701.13
2022-12-19T05:37:45.719Z,99664.53
2022-12-19T05:42:02.579Z,99665.28
2022-12-19T05:46:20.907Z,99675.44
2022-12-19T05:50:37.840Z,99666.69
2022-12-19T05:54:55.022Z,99661.78
2022-12-19T05:59:11.958Z,99663.06
2022-12-19T06:03:29.024Z,99656.56
2022-12-19T06:07:46.632Z,99653.50
2022-12-19T06:12:03.944Z,99661.94
2022-12-19T06:16:22.699Z,99658.53
2022-12-19T06:20:39.753Z,99655.44
2022-12-19T06:24:56.910Z,99638.53
2022-12-19T06:29:14.067Z,99649.84
2022-12-19T06:33:32.747Z,99655.50
2022-12-19T06:37:49.976Z,99658.88
2022-12-19T06:42:24.356Z,99662.88
2022-12-19T06:46:42.321Z,99669.38
2022-12-19T06:50:59.925Z,99676.56
2022-12-19T06:55:16.913Z,99684.13
2022-12-19T06:59:34.313Z,99672.41
2022-12-19T07:03:51.269Z,99672.22
2022-12-19T07:08:11.279Z,99662.28
2022-12-19T07:12:28.121Z,99652.06
2022-12-19T07:16:46.919Z,99660.78
2022-12-19T07:21:05.976Z,99661.91
2022-12-19T07:25:23.157Z,99670.78
2022-12-19T07:29:40.028Z,99679.78
2022-12-19T07:33:58.278Z,99676.97
2022-12-19T07:38:15.338Z,99667.22
2022-12-19T07:42:32.899Z,99660.16
2022-12-19T07:46:49.891Z,99661.09
2022-12-19T07:51:06.927Z,99660.06
2022-12-19T07:55:23.930Z,99655.94
2022-12-19T07:59:41.006Z,99644.41
2022-12-19T08:03:58.347Z,99663.38
2022-12-19T08:08:17.330Z,99656.69
2022-12-19T08:12:34.474Z,99628.34
2022-12-19T08:17:19.207Z,99633.38
2022-12-19T08:21:28.635Z,99638.84
2022-12-19T08:25:45.482Z,99633.72
2022-12-19T08:30:03.408Z,99634.53
2022-12-19T08:34:20.850Z,99628.59
2022-12-19T08:38:39.856Z,99623.19
2022-12-19T08:42:56.869Z,99626.97
2022-12-19T08:47:13.819Z,99610.22
2022-12-19T08:51:30.886Z,99619.66
2022-12-19T08:55:50.746Z,99608.81
2022-12-19T09:00:08.783Z,99613.47
2022-12-19T09:05:59.913Z,99614.97
2022-12-19T09:09:05.422Z,99621.63
2022-12-19T09:13:23.749Z,99629.47
2022-12-19T09:17:40.648Z,99609.88
2022-12-19T09:21:57.789Z,99609.41
2022-12-19T09:26:14.909Z,99580.41
2022-12-19T09:30:31.809Z,99603.81
2022-12-19T09:34:50.145Z,99595.34
2022-12-19T09:39:07.161Z,99597.44
2022-12-19T09:43:42.151Z,99586.75
2022-12-19T09:48:00.119Z,99587.84
2022-12-19T09:52:31.049Z,99595.91
2022-12-19T09:56:54.321Z,99582.47
2022-12-19T10:01:26.898Z,99564.88
2022-12-19T10:07:12.834Z,99570.09
2022-12-19T10:12:43.157Z,99556.25
2022-12-19T10:16:23.225Z,99554.34
2022-12-19T10:21:09.510Z,99551.22
2022-12-19T10:25:37.634Z,99557.06
2022-12-19T10:30:17.199Z,99554.06
2022-12-19T10:34:40.885Z,99536.00
2022-12-19T10:39:08.627Z,99518.47
2022-12-19T10:43:51.524Z,99526.53
2022-12-19T10:48:17.629Z,99521.56
2022-12-19T10:52:57.146Z,99498.00
2022-12-19T10:57:27.478Z,99496.00
2022-12-19T11:01:45.540Z,99477.63
2022-12-19T11:06:07.045Z,99464.09
2022-12-19T11:14:49.905Z,99466.56
2022-12-19T11:21:03.261Z,99467.06
2022-12-19T11:29:30.621Z,99475.72
2022-12-19T11:30:26.148Z,99462.25
2022-12-19T11:34:36.564Z,99487.19
2022-12-19T11:38:54.465Z,99472.53
2022-12-19T11:43:49.277Z,99460.44
2022-12-19T11:48:30.090Z,99470.84
2022-12-19T11:53:18.558Z,99473.47
2022-12-19T11:57:38.853Z,99464.59
2022-12-19T12:02:41.192Z,99468.53
2022-12-19T12:07:00.062Z,99457.25
2022-12-19T12:20:14.984Z,99464.75
2022-12-19T12:26:45.115Z,99461.13
2022-12-19T12:31:22.780Z,99449.31
2022-12-19T12:31:45.111Z,99439.91
2022-12-19T12:42:04.087Z,99437.13
2022-12-19T12:46:27.757Z,99433.31
2022-12-19T12:50:54.661Z,99433.78
2022-12-19T12:55:23.860Z,99458.75
2022-12-19T12:59:46.767Z,99393.94
2022-12-19T13:04:26.545Z,99395.38
2022-12-19T13:08:49.774Z,99392.47
2022-12-19T13:13:18.675Z,99373.38
2022-12-19T13:17:39.532Z,99374.69
2022-12-19T13:22:07.463Z,99374.16
2022-12-19T13:26:46.751Z,99372.16
2022-12-19T13:31:18.763Z,99372.66
2022-12-19T13:36:58.795Z,99367.88
2022-12-19T13:40:32.794Z,99352.41
2022-12-19T13:44:51.535Z,99350.22
2022-12-19T13:49:22.728Z,99346.56
2022-12-19T13:53:43.479Z,99336.38
2022-12-19T13:58:04.455Z,99334.94
2022-12-19T14:02:45.344Z,99321.56
2022-12-19T14:07:19.834Z,99296.38
2022-12-19T14:13:40.674Z,99292.84
2022-12-19T14:16:43.563Z,99288.03
2022-12-19T14:22:07.140Z,99267.91
2022-12-19T14:28:28.265Z,99260.53
2022-12-19T14:30:35.131Z,99255.78
2022-12-19T14:36:10.694Z,99258.22
2022-12-19T14:39:34.371Z,99251.16
2022-12-19T14:52:25.239Z,99239.81
2022-12-19T14:54:06.399Z,99242.22
2022-12-19T14:54:55.333Z,99233.50
2022-12-19T14:58:54.063Z,99238.88
2022-12-19T15:02:48.155Z,99225.00
2022-12-19T15:07:12.554Z,99212.97
2022-12-19T15:12:05.923Z,99200.78
2022-12-19T15:16:31.582Z,99209.63
2022-12-19T15:20:50.337Z,99201.22
2022-12-19T15:25:17.583Z,99196.88
2022-12-19T15:29:45.379Z,99199.66
2022-12-19T15:34:41.668Z,99211.09
2022-12-19T15:39:04.251Z,99204.16
2022-12-19T15:44:01.913Z,99191.25
2022-12-19T15:48:00.672Z,99201.16
2022-12-19T15:52:19.616Z,99202.88
2022-12-19T15:56:43.543Z,99191.09
2022-12-19T16:01:04.134Z,99196.66
2022-12-19T16:05:23.316Z,99189.91
2022-12-19T16:09:40.523Z,99178.53
2022-12-19T16:13:58.652Z,99196.81
2022-12-19T16:18:16.409Z,99177.81
2022-12-19T16:22:33.494Z,99167.25
2022-12-19T16:26:59.041Z,99168.44
2022-12-19T16:31:16.822Z,99159.84
2022-12-19T16:36:02.980Z,99157.38
2022-12-19T16:40:19.947Z,99156.06
2022-12-19T16:44:36.847Z,99147.72
2022-12-19T16:48:53.976Z,99163.69
2022-12-19T16:53:10.830Z,99164.34
2022-12-19T16:57:28.784Z,99151.91
2022-12-19T17:01:46.447Z,99166.50
2022-12-19T17:06:04.593Z,99165.09
2022-12-19T17:10:27.762Z,99149.28
2022-12-19T17:14:45.166Z,99147.25
2022-12-19T17:19:02.733Z,99145.94
2022-12-19T17:23:25.066Z,99130.22
2022-12-19T17:27:42.060Z,99118.56
2022-12-19T17:31:59.361Z,99116.00
2022-12-19T17:36:21.343Z,99114.94
2022-12-19T17:40:42.816Z,99141.50
2022-12-19T17:44:59.877Z,99110.19
2022-12-19T17:49:29.864Z,99108.91
2022-12-19T17:53:47.524Z,99118.97
2022-12-19T17:58:04.436Z,99112.41
2022-12-19T18:02:26.437Z,99111.72
2022-12-19T18:06:43.825Z,99114.03
2022-12-19T18:11:04.308Z,99107.50
2022-12-19T18:15:23.301Z,99102.41
2022-12-19T18:19:40.575Z,99110.81
2022-12-19T18:23:57.759Z,99103.63
2022-12-19T18:28:16.231Z,99098.81
2022-12-19T18:32:33.003Z,99088.56
2022-12-19T18:36:50.323Z,99094.44
2022-12-19T18:41:20.188Z,99100.16
2022-12-19T18:45:41.691Z,99077.88
2022-12-19T18:49:58.546Z,99073.06
2022-12-19T18:54:19.769Z,99066.69
2022-12-19T18:58:37.368Z,99063.78
2022-12-19T19:03:02.673Z,99056.03
2022-12-19T19:07:19.750Z,99062.31
2022-12-19T19:11:36.896Z,99066.25
2022-12-19T19:15:58.283Z,99078.25
2022-12-19T19:20:15.774Z,99052.97
2022-12-19T19:24:32.853Z,99050.13
2022-12-19T19:28:52.456Z,99051.25
2022-12-19T19:33:21.418Z,99050.47
2022-12-19T19:37:39.386Z,99048.06
2022-12-19T19:41:56.451Z,99055.81
2022-12-19T19:46:13.641Z,99063.94
2022-12-19T19:50:31.347Z,99054.69
2022-12-19T19:54:48.418Z,99041.25
2022-12-19T19:59:05.777Z,99035.34
2022-12-19T20:03:24.141Z,99043.13
2022-12-19T20:07:41.342Z,99036.53
2022-12-19T20:11:58.570Z,99039.56
2022-12-19T20:16:19.074Z,99029.38
2022-12-19T20:20:35.973Z,99022.25
2022-12-19T20:24:54.239Z,99021.47
2022-12-19T20:29:11.606Z,99024.19
2022-12-19T20:33:28.706Z,99014.97
2022-12-19T20:37:45.632Z,99015.75
2022-12-19T20:42:02.802Z,99015.75
2022-12-19T20:46:21.355Z,99009.84
2022-12-19T20:50:43.217Z,99003.06
2022-12-19T20:55:00.459Z,99001.09
2022-12-19T20:59:19.180Z,99008.34
2022-12-19T21:03:36.936Z,98999.78
2022-12-19T21:07:54.153Z,99001.19
2022-12-19T21:12:12.287Z,98982.28
2022-12-19T21:16:29.541Z,98972.47
2022-12-19T21:20:46.644Z,98976.00
2022-12-19T21:25:05.196Z,98973.09
2022-12-19T21:29:22.056Z,98977.59
2022-12-19T21:33:39.365Z,98951.56
2022-12-19T21:37:56.394Z,98948.41
2022-12-19T21:42:13.478Z,98951.28
2022-12-19T21:46:35.716Z,98947.19
2022-12-19T21:50:56.488Z,98932.66
2022-12-19T21:55:13.355Z,98925.03
2022-12-19T21:59:30.616Z,98929.34
2022-12-19T22:03:48.157Z,98949.91
2022-12-19T22:08:05.492Z,98936.63
2022-12-19T22:12:22.519Z,98928.31
2022-12-19T22:16:39.744Z,98928.75
2022-12-19T22:20:59.112Z,98934.84
2022-12-19T22:25:16.184Z,98919.84
2022-12-19T22:29:36.574Z,98920.31
2022-12-19T22:33:58.052Z,98917.78
2022-12-19T22:38:14.919Z,98914.19
2022-12-19T22:42:32.042Z,98902.63
2022-12-19T22:46:50.250Z,98901.25
2022-12-19T22:51:09.031Z,98891.69
2022-12-19T22:55:25.885Z,98896.81
2022-12-19T22:59:44.447Z,98887.47
2022-12-19T23:04:02.924Z,98891.06
2022-12-19T23:08:20.183Z,98880.53
2022-12-19T23:12:37.072Z,98883.00
2022-12-19T23:16:54.309Z,98873.47
2022-12-19T23:21:18.528Z,98877.19
2022-12-19T23:25:42.534Z,98863.47
2022-12-19T23:29:59.662Z,98861.50
2022-12-19T23:34:17.524Z,98847.34
2022-12-19T23:38:34.757Z,98861.00
2022-12-19T23:42:51.600Z,98852.53
2022-12-19T23:47:08.688Z,98853.72
2022-12-19T23:51:27.393Z,98854.94
2022-12-19T23:55:46.354Z,98859.75
